Main page
METAR-TAF:

METAR-TAF

Airports :

Sohag International Airport

Sohag, Egypt

latitude: 26-20-25N, longitude: 31-44-20E, elevation: 70 m

Current weather observation

The report was made 57 minutes ago, at 15:00 UTC
Wind 15 kt from the Northwest
Temperature 40°C
Humidity 12%
Pressure 1007 hPa
Visibility 10 km or more
no clouds below 1500 m and no cumulonimbus

METAR: HESG 221500Z 32015KT CAVOK 40/05 Q1007 NOSIG

Time: 17:57 (15:57 UTC)

Forecast

The report was made 4 hours and 57 minutes ago, at 11:00 UTC
Forecast valid from 22 at 12 UTC to 23 at 18 UTC
Wind 12 kt from the North/Northwest
Visibility 10 km or more
no clouds below 1500 m and no cumulonimbus

TAF: HESG 221100Z 2212/2318 34012KT CAVOK

Weather observations and forecasts of more than 4000 airports (METAR and TAF reports).

The available stations are represented by yellow and red dots on the map.

Hover mouse over dot to see the name of the station.

Then click to see weather observations and forecasts.

To change the map : click on the green buttons with a black cross to zoom in, on the green button with a dash to zoom out, or on the green arrows for adjacent maps.


METAR-TAF: